Latest Coastal Weather Observations for Cape Nelson

IDV60701

Issued at 7:31 am EST Friday 4 September 2015 (issued every 10 minutes, with the page automatically refreshed every 10 minutes)

About coastal observations | Map of coastal stations | Coastal observations for VIC | Marine services | Other Formats
Station Details ID: 090184 Name: CAPE NELSON LIGHTHOUSE Lat: -38.43 Lon: 141.54 Height: 45.4 m
Data from the previous 72 hours. | See also: Recent months at Cape Nelson
Date/Time
EST
Temp

°C
Wind Pressure Rain
since 9am
mm
Weather Cloud Vis
km
Sea
Height
m
Swell
Dir
 
Speed
knots
Gust
knots
hPa Trend Height
m
Period
s
Dir
04/07:30am 10.2 WNW 7 13 1026.4 - 0.0 - - - - - - -
04/07:00am 10.0 NW 7 10 1026.2 - 0.0 - - - - - - -
04/06:30am 10.0 N 6 13 1026.0 - 0.0 - - - - - - -
04/06:00am 10.0 ENE 5 8 1025.9 - 0.0 - - - - - - -
04/05:30am 10.1 SSE 6 13 1025.7 - 0.0 - - - - - - -
04/05:00am 10.2 SSE 5 8 1025.3 - 0.0 - - - - - - -
04/04:30am 10.3 SSE 7 11 1025.2 - 0.0 - - - - - - -
04/04:00am 10.2 ENE 4 7 1025.1 - 0.0 - - - - - - -
04/03:30am 10.3 S 8 13 1025.2 - 0.0 - - - - - - -
04/03:00am 10.2 S 8 11 1025.3 - 0.0 - - - - - - -
04/02:30am 9.8 S 7 11 1025.3 - 0.0 - - - - - - -
04/02:00am 9.8 S 8 11 1025.5 - 0.0 - - - - - - -
04/01:30am 9.9 S 7 10 1025.7 - 0.0 - - - - - - -
04/01:00am 10.2 S 7 10 1025.7 - 0.0 - - - - - - -
04/12:30am 10.0 S 8 11 1025.7 - 0.0 - - - - - - -
04/12:00am 10.1 S 8 11 1025.6 - 0.0 - - - - - - -
 
Date/Time
EST
Temp

°C
Wind Pressure Rain
since 9am
mm
Weather Cloud Vis
km
Sea
Height
m
Swell
Dir
 
Speed
knots
Gust
knots
hPa Trend Height
m
Period
s
Dir
03/11:30pm 10.1 SSE 10 14 1025.5 - 0.0 - - - - - - -
03/11:00pm 10.3 S 11 15 1025.3 - 0.0 - - - - - - -
03/10:30pm 10.4 S 11 14 1025.3 - 0.0 - - - - - - -
03/10:00pm 10.8 SSE 11 13 1025.2 - 0.0 - - - - - - -
03/09:30pm 10.7 SSE 10 14 1025.0 - 0.0 - - - - - - -
03/09:00pm 10.6 SSE 11 15 1024.8 - 0.0 - - - - - - -
03/08:30pm 10.5 SSE 12 17 1024.6 - 0.0 - - - - - - -
03/08:00pm 10.6 SSE 13 17 1024.4 - 0.0 - - - - - - -
03/07:30pm 10.6 SSE 11 16 1024.0 - 0.0 - - - - - - -
03/07:00pm 10.6 S 13 17 1023.8 - 0.0 - - - - - - -
03/06:30pm 11.0 SSE 15 21 1023.2 - 0.0 - - - - - - -
03/06:00pm 11.1 SSE 14 19 1022.7 - 0.0 - - - - - - -
03/05:30pm 11.3 SSE 14 19 1022.4 - 0.0 - - - - - - -
03/05:00pm 11.6 SSE 15 19 1022.0 - 0.0 - - - - - - -
03/04:30pm 11.9 SSE 14 17 1021.6 - 0.0 - - - - - - -
03/04:00pm 11.9 SSE 13 17 1021.3 - 0.0 - - - - - - -
03/03:30pm 12.2 SSE 13 16 1021.0 - 0.0 - - - - - - -
03/03:00pm 12.0 SSE 16 21 1020.6 - 0.0 - - - - - - -
03/02:30pm 12.0 SSE 15 21 1020.2 - 0.0 - - - - - - -
03/02:00pm 12.1 SSE 16 22 1019.9 - 0.0 - - - - - - -
03/01:30pm 11.8 SSE 18 23 1019.7 - 0.0 - - - - - - -
03/01:00pm 11.5 SSE 18 25 1019.6 - 0.0 - - - - - - -
03/12:30pm 11.5 SSE 17 23 1019.7 - 0.0 - - - - - - -
03/12:00pm 12.2 SSE 16 21 1019.5 - 0.0 - - - - - - -
03/11:30am 12.0 SSE 18 23 1019.2 - 0.0 - - - - - - -
03/11:00am 11.5 SSE 17 22 1018.8 - 0.0 - - - - - - -
03/10:30am 11.6 SSE 20 25 1018.5 - 0.0 - - - - - - -
03/10:00am 11.7 SSE 21 27 1018.0 - 0.0 - - - - - - -
03/09:30am 12.1 SSE 21 27 1017.3 - 0.0 - - - - - - -
03/09:00am 12.1 SSE 19 25 1016.6 - 2.4 - - - - - - -
03/08:30am 12.6 S 15 19 1016.1 - 2.4 - - - - - - -
03/08:00am 12.4 S 15 19 1015.5 - 2.4 - - - - - - -
03/07:30am 12.1 S 15 18 1014.7 - 2.4 - - - - - - -
03/07:00am 11.9 SSE 15 19 1013.8 - 2.4 - - - - - - -
03/06:30am 12.1 SSE 15 19 1013.2 - 2.4 - - - - - - -
03/06:00am 12.0 SSE 15 18 1012.6 - 2.4 - - - - - - -
03/05:30am 11.7 SSE 15 19 1011.9 - 2.4 - - - - - - -
03/05:00am 11.7 SSE 15 18 1011.4 - 2.4 - - - - - - -
03/04:30am 11.6 SSE 13 17 1010.9 - 2.4 - - - - - - -
03/04:00am 11.5 SSE 13 16 1010.5 - 2.4 - - - - - - -
03/03:30am 11.4 S 13 17 1010.1 - 2.4 - - - - - - -
03/03:00am 11.2 SSE 12 15 1010.3 - 2.4 - - - - - - -
03/02:30am 11.3 S 10 14 1010.2 - 2.4 - - - - - - -
03/02:00am 11.2 S 9 11 1009.9 - 2.4 - - - - - - -
03/01:30am 10.9 SE 5 7 1009.6 - 2.4 - - - - - - -
03/01:00am 11.0 ESE 4 6 1009.7 - 2.4 - - - - - - -
03/12:30am 10.9 E 6 9 1009.3 - 2.4 - - - - - - -
03/12:00am 11.2 S 8 10 1009.4 - 2.4 - - - - - - -
 
Date/Time
EST
Temp

°C
Wind Pressure Rain
since 9am
mm
Weather Cloud Vis
km
Sea
Height
m
Swell
Dir
 
Speed
knots
Gust
knots
hPa Trend Height
m
Period
s
Dir
02/11:30pm 10.9 S 6 8 1009.3 - 2.4 - - - - - - -
02/11:00pm 10.7 S 6 7 1009.0 - 2.4 - - - - - - -
02/10:30pm 10.2 SSE 4 5 1008.7 - 2.4 - - - - - - -
02/10:00pm 9.8 CALM 0 0 1008.6 - 2.4 - - - - - - -
02/09:30pm 9.7 CALM 0 0 1008.5 - 2.4 - - - - - - -
02/09:00pm 9.7 CALM 0 2 1008.2 - 2.4 - - - - - - -
02/08:30pm 9.9 NNE 4 5 1008.0 - 2.4 - - - - - - -
02/08:00pm 10.0 NW 3 4 1007.7 - 2.4 - - - - - - -
02/07:30pm 10.2 NNW 4 6 1007.6 - 2.2 - - - - - - -
02/07:00pm 10.2 NNW 4 6 1007.4 - 2.2 - - - - - - -
02/06:30pm 10.2 N 6 11 1006.8 - 2.0 - - - - - - -
02/06:00pm 10.5 NNE 13 18 1005.8 - 2.0 Recent precip. - - - - - -
02/05:30pm 10.9 NE 12 16 1005.4 - 2.0 - - - - - - -
02/05:00pm 11.0 NE 13 19 1005.0 - 1.8 - - - - - - -
02/04:30pm 11.0 NE 13 17 1005.0 - 1.6 - - - - - - -
02/04:00pm 10.8 NE 12 20 1005.1 - 1.6 - - - - - - -
02/03:30pm 11.2 NE 12 16 1005.1 - 1.6 - - - - - - -
02/03:00pm 11.1 NE 11 17 1005.3 - 1.4 Rain - - - - - -
02/02:30pm 11.7 NNE 8 12 1005.6 - 1.2 - - - - - - -
02/02:00pm 12.6 NNE 6 11 1005.8 - 1.2 - - - - - - -
02/01:30pm 12.2 N 4 8 1006.4 - 1.0 - - - - - - -
02/01:00pm 11.9 NNE 7 11 1006.8 - 1.0 - - - - - - -
02/12:30pm 11.5 NNE 9 15 1006.9 - 1.0 - - - - - - -
02/12:00pm 11.5 ENE 7 9 1007.3 - 1.0 Recent precip. - - - - - -
02/11:30am 11.2 NE 4 7 1007.3 - 1.0 - - - - - - -
02/11:00am 11.2 NNE 5 8 1007.5 - 0.0 - - - - - - -
02/10:30am 11.7 NE 7 9 1007.8 - 0.0 - - - - - - -
02/10:00am 11.8 NNE 8 11 1008.2 - 0.0 - - - - - - -
02/09:30am 12.2 NNE 9 12 1008.0 - 0.0 - - - - - - -
02/09:00am 12.2 NE 11 16 1007.7 - 0.0 - - - - - - -
02/08:30am 12.3 NE 12 15 1007.8 - 0.0 - - - - - - -
02/08:00am 12.7 NE 12 16 1007.7 - 0.0 - - - - - - -
02/07:30am 12.2 NE 11 17 1007.6 - 0.0 - - - - - - -
02/07:00am 12.1 NNE 10 16 1007.6 - 0.0 - - - - - - -
02/06:30am 12.3 NNE 11 15 1007.7 - 0.0 - - - - - - -
02/06:00am 12.3 NNE 10 14 1007.6 - 0.0 - - - - - - -
02/05:30am 12.1 NNE 11 15 1007.8 - 0.0 - - - - - - -
02/05:00am 11.9 N 11 15 1008.1 - 0.0 - - - - - - -
02/04:30am 11.8 NNE 11 15 1007.8 - 0.0 - - - - - - -
02/04:00am 11.0 NNE 11 15 1008.0 - 0.0 - - - - - - -
02/03:30am 12.1 N 13 17 1008.2 - 0.0 - - - - - - -
02/03:00am 12.5 NNE 12 17 1008.4 - 0.0 - - - - - - -
02/02:30am 12.3 N 12 17 1008.7 - 0.0 - - - - - - -
02/02:00am 12.2 NNE 12 17 1008.8 - 0.0 - - - - - - -
02/01:30am 12.2 NNE 13 17 1008.9 - 0.0 - - - - - - -
02/01:00am 12.1 NNE 11 16 1009.0 - 0.0 - - - - - - -
02/12:30am 11.7 NE 11 15 1009.4 - 0.0 - - - - - - -
02/12:00am 12.2 NE 8 11 1009.6 - 0.0 - - - - - - -
 
Date/Time
EST
Temp

°C
Wind Pressure Rain
since 9am
mm
Weather Cloud Vis
km
Sea
Height
m
Swell
Dir
 
Speed
knots
Gust
knots
hPa Trend Height
m
Period
s
Dir
01/11:30pm 12.4 NE 8 11 1009.9 - 0.0 - - - - - - -
01/11:00pm 12.3 NE 8 10 1010.2 - 0.0 - - - - - - -
01/10:30pm 12.4 NE 9 12 1010.3 - 0.0 - - - - - - -
01/10:00pm 12.4 NE 9 12 1010.4 - 0.0 - - - - - - -
01/09:30pm 12.6 NE 11 13 1010.6 - 0.0 - - - - - - -
01/09:00pm 12.7 NE 10 13 1010.7 - 0.0 - - - - - - -
01/08:30pm 13.0 NE 11 15 1010.7 - 0.0 - - - - - - -
01/08:00pm 12.7 ENE 11 15 1010.7 - 0.0 - - - - - - -
01/07:30pm 12.7 ENE 11 15 1010.8 - 0.0 - - - - - - -
01/07:00pm 12.6 NE 9 13 1011.1 - 0.0 - - - - - - -
01/06:30pm 12.5 ENE 12 16 1011.0 - 0.0 - - - - - - -
01/06:00pm 12.5 ENE 11 18 1010.8 - 0.0 - - - - - - -
01/05:30pm 12.6 ENE 10 14 1010.9 - 0.0 - - - - - - -
01/05:00pm 12.8 E 10 16 1010.7 - 0.0 - - - - - - -
01/04:30pm 12.7 E 13 17 1010.6 - 0.0 - - - - - - -
01/04:00pm 12.6 E 14 17 1011.0 - 0.0 - - - - - - -
01/03:30pm 12.6 E 12 15 1011.5 - 0.0 - - - - - - -
01/03:00pm 12.4 E 9 13 1012.0 - 0.0 - - - - - - -
01/02:30pm 12.5 E 9 12 1012.4 - 0.0 - - - - - - -
01/02:00pm 11.9 ENE 9 12 1012.7 - 0.0 - - - - - - -
01/01:30pm 12.0 ENE 10 13 1013.1 - 0.0 - - - - - - -
01/01:00pm 12.8 NE 9 11 1013.6 - 0.0 - - - - - - -
01/12:30pm 12.4 ENE 8 11 1014.0 - 0.0 - - - - - - -
01/12:00pm 11.8 ENE 10 13 1014.4 - 0.0 - - - - - - -
01/11:30am 12.0 E 8 10 1015.0 - 0.0 - - - - - - -
01/11:00am 11.5 ENE 7 10 1015.4 - 0.0 - - - - - - -
01/10:30am 11.2 ENE 6 9 1015.8 - 0.0 - - - - - - -
01/10:00am 9.5 NE 7 8 1016.2 - 0.0 - - - - - - -
01/09:30am 8.9 NE 7 9 1016.3 - 0.0 - - - - - - -
01/09:00am 8.7 NE 7 9 1016.3 - 0.0 - - - - - - -
01/08:30am 7.6 NE 7 10 1016.2 - 0.0 - - - - - - -
01/08:00am 6.5 NNE 7 10 1016.3 - 0.0 - - - - - - -

Other Formats:

Comma delimited format used in spreadsheet applications
http://www.bom.gov.au/fwo/IDV60701/IDV60701.94826.axf

JavaScript Object Notation format (JSON) in row-major order
http://www.bom.gov.au/fwo/IDV60701/IDV60701.94826.json